Time;durP1;ratioP1;P1;durP2;ratioP2;P2;SDS_P1;SDS_P2;PMS_P1;PMS_P2;Temp;Humidity;BMP_temperature;BMP_pressure;BME280_temperature;BME280_humidity;BME280_pressure;Samples;Min_cycle;Max_cycle;Signal;HPM_P1;HPM_P2
2021/12/31 00:00:12;;;;;;;0.40;0.40;;;;;;;13.12;73.07;100967.84;680469;29;22384;-70
2021/12/31 00:00:35;;;;;;;0.30;0.30;;;;;;;13.15;72.56;100961.22;680154;28;46673;-71
2021/12/31 00:00:56;;;;;;;0.40;0.40;;;;;;;13.18;72.46;100968.13;678856;28;68185;-71
2021/12/31 00:01:18;;;;;;;0.50;0.50;;;;;;;13.21;72.23;100965.03;683720;28;1493;-71
2021/12/31 00:01:40;;;;;;;0.40;0.40;;;;;;;13.23;72.36;100961.09;678128;28;69554;-70
2021/12/31 00:02:02;;;;;;;0.40;0.40;;;;;;;13.19;72.69;100956.25;680097;29;23469;-70
2021/12/31 00:02:23;;;;;;;0.40;0.40;;;;;;;13.19;72.85;100965.22;679558;28;46333;-71
2021/12/31 00:02:44;;;;;;;0.50;0.50;;;;;;;13.19;72.86;100956.25;677535;29;21551;-70
2021/12/31 00:03:06;;;;;;;0.40;0.40;;;;;;;13.13;73.50;100961.41;676523;29;22970;-70
2021/12/31 00:03:27;;;;;;;0.40;0.40;;;;;;;13.14;73.54;100956.81;678016;28;44099;-71
2021/12/31 00:03:49;;;;;;;0.40;0.40;;;;;;;13.13;73.18;100955.97;680276;29;21533;-70
2021/12/31 00:04:10;;;;;;;0.50;0.50;;;;;;;13.15;73.05;100955.78;679787;29;22179;-70
2021/12/31 00:04:32;;;;;;;0.40;0.40;;;;;;;13.17;72.74;100948.28;680984;28;45338;-70
2021/12/31 00:04:53;;;;;;;0.30;0.30;;;;;;;13.16;72.87;100952.88;682235;28;44397;-70
2021/12/31 00:05:19;;;;;;;0.40;0.40;;;;;;;13.14;73.37;100964.94;682649;28;22439;-70
2021/12/31 00:05:49;;;;;;;0.50;0.50;;;;;;;13.19;72.87;100957.06;679012;28;137531;-71
2021/12/31 00:06:11;;;;;;;0.40;0.40;;;;;;;13.20;72.67;100961.47;682633;28;46657;-70
2021/12/31 00:06:32;;;;;;;0.30;0.30;;;;;;;13.20;72.52;100955.19;683655;28;23491;-70
2021/12/31 00:06:53;;;;;;;0.40;0.40;;;;;;;13.20;72.76;100958.78;683832;28;1812;-71
2021/12/31 00:07:15;;;;;;;0.40;0.40;;;;;;;13.16;72.83;100952.88;682239;28;46219;-71
2021/12/31 00:07:36;;;;;;;0.40;0.40;;;;;;;13.21;72.49;100955.00;682786;28;46542;-71
2021/12/31 00:08:01;;;;;;;0.30;0.30;;;;;;;13.24;72.14;100957.34;682792;28;22531;-71
2021/12/31 00:08:22;;;;;;;0.40;0.40;;;;;;;13.23;72.04;100961.09;680778;28;13324;-71
2021/12/31 00:08:44;;;;;;;0.40;0.40;;;;;;;13.24;72.30;100960.06;677240;29;45120;-71
2021/12/31 00:09:05;;;;;;;0.40;0.40;;;;;;;13.25;72.29;100956.31;675957;29;46225;-71
2021/12/31 00:09:26;;;;;;;0.38;0.38;;;;;;;13.24;72.54;100954.63;678670;29;21313;-71
2021/12/31 00:09:58;;;;;;;0.50;0.50;;;;;;;13.22;72.84;100953.16;677510;29;22397;-71
2021/12/31 00:10:22;;;;;;;0.40;0.40;;;;;;;13.20;73.08;100956.06;677236;28;115155;-71
2021/12/31 00:10:44;;;;;;;0.35;0.35;;;;;;;13.19;73.58;100958.97;680826;29;1493;-71
2021/12/31 00:11:05;;;;;;;0.40;0.40;;;;;;;13.18;72.98;100952.66;679322;29;44385;-71
2021/12/31 00:11:28;;;;;;;0.50;0.50;;;;;;;13.21;72.76;100962.31;679164;28;74821;-72
2021/12/31 00:11:52;;;;;;;0.40;0.40;;;;;;;13.21;72.77;100954.19;677305;29;22193;-71
2021/12/31 00:12:14;;;;;;;0.30;0.30;;;;;;;13.22;72.94;100955.88;674664;29;92287;-71
2021/12/31 00:12:35;;;;;;;0.40;0.40;;;;;;;13.21;72.95;100954.19;678924;28;46465;-71
2021/12/31 00:12:56;;;;;;;0.45;0.45;;;;;;;13.19;73.49;100959.78;677276;29;21500;-71
2021/12/31 00:13:18;;;;;;;0.40;0.40;;;;;;;13.16;73.78;100952.88;677910;29;22265;-71
2021/12/31 00:13:40;;;;;;;0.30;0.30;;;;;;;13.16;73.68;100952.03;679784;29;1910;-71
2021/12/31 00:14:01;;;;;;;0.43;0.43;;;;;;;13.14;73.52;100957.63;678461;28;45264;-71
2021/12/31 00:14:22;;;;;;;0.50;0.50;;;;;;;13.14;73.78;100956.81;680897;28;22423;-71
2021/12/31 00:14:43;;;;;;;0.40;0.40;;;;;;;13.11;73.81;100958.00;677683;29;45088;-72
2021/12/31 00:15:05;;;;;;;0.30;0.30;;;;;;;13.14;73.69;100956.81;678385;29;22488;-72
2021/12/31 00:15:27;;;;;;;0.43;0.43;;;;;;;13.18;73.32;100955.38;679374;29;20253;-72
2021/12/31 00:15:48;;;;;;;0.50;0.50;;;;;;;13.16;73.33;100958.31;677454;29;46406;-72
2021/12/31 00:16:09;;;;;;;0.40;0.40;;;;;;;13.15;73.47;100959.34;679044;29;23541;-72
2021/12/31 00:16:30;;;;;;;0.32;0.32;;;;;;;13.19;73.02;100962.50;679759;29;22385;-71
2021/12/31 00:16:53;;;;;;;0.40;0.40;;;;;;;13.19;73.31;100961.66;681485;28;23458;-71
2021/12/31 00:17:14;;;;;;;0.40;0.40;;;;;;;13.16;73.19;100957.44;681314;28;67282;-71
2021/12/31 00:17:35;;;;;;;0.40;0.40;;;;;;;13.18;73.13;100959.97;684051;28;21991;-72
2021/12/31 00:17:56;;;;;;;0.40;0.40;;;;;;;13.19;73.25;100958.97;683767;28;1481;-71
2021/12/31 00:18:19;;;;;;;0.40;0.40;;;;;;;13.18;73.30;100963.50;683471;28;23545;-71
2021/12/31 00:18:40;;;;;;;0.50;0.50;;;;;;;13.18;73.60;100957.25;682003;28;68484;-72
2021/12/31 00:19:01;;;;;;;0.38;0.38;;;;;;;13.16;73.69;100957.44;682344;28;4872;-71
2021/12/31 00:19:22;;;;;;;0.30;0.30;;;;;;;13.17;73.67;100953.72;684024;28;1579;-71
2021/12/31 00:19:46;;;;;;;0.40;0.40;;;;;;;13.15;73.88;100961.22;683561;28;22438;-72
2021/12/31 00:20:13;;;;;;;0.40;0.40;;;;;;;13.13;73.96;100957.81;680448;28;92375;-72
2021/12/31 00:20:35;;;;;;;0.40;0.40;;;;;;;13.11;74.04;100954.47;680116;28;137845;-72
2021/12/31 00:21:03;;;;;;;0.40;0.40;;;;;;;13.13;74.11;100960.53;680191;29;24402;-72
2021/12/31 00:21:25;;;;;;;0.50;0.50;;;;;;;13.11;74.27;100963.44;679912;28;60204;-72
2021/12/31 00:21:48;;;;;;;0.40;0.40;;;;;;;13.13;73.80;100958.69;680758;29;11968;-72
2021/12/31 00:22:35;;;;;;;0.30;0.30;;;;;;;13.15;73.78;100961.22;681094;29;974;-71
2021/12/31 00:23:05;;;;;;;0.50;0.50;;;;;;;13.12;73.82;100950.75;678845;28;137783;-72
2021/12/31 00:23:28;;;;;;;0.40;0.40;;;;;;;13.14;73.58;100959.53;680337;28;119939;-71
2021/12/31 00:23:49;;;;;;;0.40;0.40;;;;;;;13.13;73.65;100958.69;680328;29;45360;-72
2021/12/31 00:24:11;;;;;;;0.50;0.50;;;;;;;13.20;73.25;100960.63;681025;29;23460;-71
2021/12/31 00:24:33;;;;;;;0.50;0.50;;;;;;;13.24;72.97;100961.94;682789;28;1662;-72
2021/12/31 00:24:54;;;;;;;0.40;0.40;;;;;;;13.21;72.96;100960.44;681607;29;22547;-71
2021/12/31 00:25:15;;;;;;;0.32;0.32;;;;;;;13.23;73.39;100952.09;681395;29;22628;-71
2021/12/31 00:25:42;;;;;;;0.50;0.50;;;;;;;13.20;73.43;100947.91;680833;28;45289;-72
2021/12/31 00:26:03;;;;;;;0.40;0.40;;;;;;;13.21;73.47;100951.47;678908;28;137695;-72
2021/12/31 00:26:25;;;;;;;0.40;0.40;;;;;;;13.19;73.61;100953.53;683595;28;22353;-72
2021/12/31 00:26:46;;;;;;;0.40;0.40;;;;;;;13.20;73.79;100952.47;683312;28;21018;-72
2021/12/31 00:27:08;;;;;;;0.50;0.50;;;;;;;13.23;73.01;100961.09;683239;28;21553;-72
2021/12/31 00:27:29;;;;;;;0.40;0.40;;;;;;;13.24;73.11;100964.66;680590;28;45070;-71
2021/12/31 00:27:50;;;;;;;0.40;0.40;;;;;;;13.26;72.77;100944.44;679255;29;23494;-71
2021/12/31 00:28:13;;;;;;;0.40;0.40;;;;;;;13.26;72.79;100951.72;679723;28;46483;-71
2021/12/31 00:28:35;;;;;;;0.50;0.50;;;;;;;13.25;73.16;100950.06;681718;28;15688;-71
2021/12/31 00:28:56;;;;;;;0.40;0.40;;;;;;;13.24;73.06;100962.75;678349;29;46385;-71
2021/12/31 00:29:18;;;;;;;0.35;0.35;;;;;;;13.26;72.78;100949.00;680137;28;69510;-71
2021/12/31 00:29:40;;;;;;;0.40;0.40;;;;;;;13.29;72.38;100946.78;683301;28;1560;-71
2021/12/31 00:30:02;;;;;;;0.50;0.50;;;;;;;13.31;72.46;100954.72;680181;28;45281;-71
2021/12/31 00:30:23;;;;;;;0.40;0.40;;;;;;;13.29;72.33;100963.06;683803;28;1076;-71
2021/12/31 00:30:46;;;;;;;0.30;0.30;;;;;;;13.32;72.10;100956.41;682142;28;45248;-72
2021/12/31 00:31:08;;;;;;;0.40;0.40;;;;;;;13.29;72.44;100943.22;681572;28;69333;-72
2021/12/31 00:31:29;;;;;;;0.50;0.50;;;;;;;13.28;72.98;100950.50;683275;28;45403;-71
2021/12/31 00:31:51;;;;;;;0.40;0.40;;;;;;;13.28;73.03;100947.81;683096;28;1797;-72
2021/12/31 00:32:12;;;;;;;0.35;0.35;;;;;;;13.27;73.32;100951.53;683095;28;22424;-72
2021/12/31 00:32:34;;;;;;;0.50;0.50;;;;;;;13.26;73.40;100947.16;684116;28;22164;-72
2021/12/31 00:32:56;;;;;;;0.47;0.47;;;;;;;13.26;73.24;100947.16;683850;28;998;-72
2021/12/31 00:33:18;;;;;;;0.40;0.40;;;;;;;13.25;73.04;100948.19;682609;28;44429;-72
2021/12/31 00:33:39;;;;;;;0.40;0.40;;;;;;;13.26;73.30;100951.72;682691;28;45134;-71
2021/12/31 00:34:00;;;;;;;0.47;0.47;;;;;;;13.26;72.85;100941.75;681956;28;23482;-71
2021/12/31 00:34:22;;;;;;;0.43;0.43;;;;;;;13.30;72.48;100953.88;683673;28;22416;-71
2021/12/31 00:34:44;;;;;;;0.40;0.40;;;;;;;13.31;72.65;100942.00;682793;28;44410;-71
2021/12/31 00:35:06;;;;;;;0.32;0.32;;;;;;;13.31;72.78;100954.72;682371;28;46395;-71
2021/12/31 00:35:27;;;;;;;0.50;0.50;;;;;;;13.28;72.94;100955.94;682925;28;46281;-71
2021/12/31 00:36:01;;;;;;;0.40;0.40;;;;;;;13.29;72.89;100946.78;681339;28;60017;-71
2021/12/31 00:36:32;;;;;;;;;;;;;;;;;;;;;
2021/12/31 00:36:54;;;;;;;0.50;0.50;;;;;;;13.37;72.28;100950.44;678564;28;137754;-72
2021/12/31 00:38:15;;;;;;;0.43;0.43;;;;;;;13.32;73.00;100949.13;681710;28;61232;-71
2021/12/31 00:38:38;;;;;;;0.40;0.40;;;;;;;13.35;72.51;100945.19;683040;28;44484;-72
2021/12/31 00:38:59;;;;;;;0.40;0.40;;;;;;;13.36;72.50;100940.63;680691;28;69408;-72
2021/12/31 00:39:20;;;;;;;0.32;0.32;;;;;;;13.36;72.39;100948.78;683834;28;22429;-72
2021/12/31 00:39:41;;;;;;;0.45;0.45;;;;;;;13.38;72.42;100952.94;683828;28;22226;-72
2021/12/31 00:40:06;;;;;;;0.40;0.40;;;;;;;13.38;72.21;100955.66;683299;28;23261;-72
2021/12/31 00:40:27;;;;;;;0.30;0.30;;;;;;;13.40;72.07;100947.34;681581;28;92296;-72
2021/12/31 00:40:49;;;;;;;0.32;0.32;;;;;;;13.41;72.11;100949.03;682684;28;22246;-72
2021/12/31 00:41:11;;;;;;;0.50;0.50;;;;;;;13.44;71.88;100944.06;681555;28;67149;-72
2021/12/31 00:41:32;;;;;;;0.40;0.40;;;;;;;13.45;71.70;100947.63;684620;28;20675;-72
2021/12/31 00:41:53;;;;;;;0.40;0.40;;;;;;;13.45;71.58;100953.06;683058;28;22463;-71
2021/12/31 00:42:14;;;;;;;0.30;0.30;;;;;;;13.42;72.05;100951.56;683500;28;21454;-71
2021/12/31 00:42:35;;;;;;;0.40;0.40;;;;;;;13.41;72.26;100946.31;684338;28;20386;-71
2021/12/31 00:42:58;;;;;;;0.40;0.40;;;;;;;13.36;72.77;100946.88;683109;28;22385;-71
2021/12/31 00:43:19;;;;;;;0.30;0.30;;;;;;;13.37;72.63;100950.44;682483;28;69440;-71
2021/12/31 00:43:40;;;;;;;0.38;0.38;;;;;;;13.36;72.61;100946.06;684717;28;1626;-71
2021/12/31 00:44:01;;;;;;;0.47;0.47;;;;;;;13.35;72.93;100953.34;682126;28;22390;-71
2021/12/31 00:44:25;;;;;;;0.40;0.40;;;;;;;13.37;72.79;100950.44;683664;28;23490;-71
2021/12/31 00:44:46;;;;;;;0.30;0.30;;;;;;;13.37;72.58;100945.00;680505;28;92257;-71
2021/12/31 00:45:09;;;;;;;0.38;0.38;;;;;;;13.38;72.40;100950.25;683224;28;21134;-71
2021/12/31 00:45:32;;;;;;;0.50;0.50;;;;;;;13.38;72.35;100950.25;682861;28;69465;-71
2021/12/31 00:45:53;;;;;;;0.40;0.40;;;;;;;13.41;72.16;100949.03;681574;28;70081;-71
2021/12/31 00:46:14;;;;;;;0.30;0.30;;;;;;;13.39;72.52;100943.78;683917;28;1438;-71
2021/12/31 00:46:35;;;;;;;0.40;0.40;;;;;;;13.39;72.22;100946.50;682984;28;23443;-71
2021/12/31 00:46:57;;;;;;;0.50;0.50;;;;;;;13.36;72.80;100941.47;682964;28;22413;-72
2021/12/31 00:47:18;;;;;;;0.40;0.40;;;;;;;13.38;72.50;100943.97;682663;28;46156;-71
2021/12/31 00:47:39;;;;;;;0.30;0.30;;;;;;;13.43;71.92;100946.97;682943;28;23510;-71
2021/12/31 00:48:02;;;;;;;0.40;0.40;;;;;;;13.43;72.26;100946.97;682792;28;23540;-71
2021/12/31 00:48:25;;;;;;;0.40;0.40;;;;;;;13.40;72.31;100947.34;682877;28;36712;-71
2021/12/31 00:48:47;;;;;;;0.40;0.40;;;;;;;13.37;72.98;100937.72;682929;28;22409;-71
2021/12/31 00:49:08;;;;;;;0.30;0.30;;;;;;;13.34;73.04;100944.38;682256;28;21531;-71
2021/12/31 00:49:30;;;;;;;0.40;0.40;;;;;;;13.39;72.60;100954.66;682674;28;46418;-71
2021/12/31 00:49:53;;;;;;;0.50;0.50;;;;;;;13.30;73.16;100940.31;680956;28;45263;-71
2021/12/31 00:50:22;;;;;;;0.40;0.40;;;;;;;13.32;73.45;100937.41;682864;28;36744;-71
2021/12/31 00:50:51;;;;;;;0.40;0.40;;;;;;;13.32;73.51;100953.69;681615;28;59172;-72
2021/12/31 00:51:13;;;;;;;0.50;0.50;;;;;;;13.31;73.61;100949.31;679187;28;138156;-72
2021/12/31 00:51:34;;;;;;;0.40;0.40;;;;;;;13.31;73.59;100950.13;677056;29;22583;-71
2021/12/31 00:51:55;;;;;;;0.30;0.30;;;;;;;13.33;72.95;100945.38;676794;29;44299;-72
2021/12/31 00:52:16;;;;;;;0.45;0.45;;;;;;;13.33;73.02;100953.53;672670;29;14530;-72
2021/12/31 00:52:39;;;;;;;0.50;0.50;;;;;;;13.32;73.33;100949.13;672609;29;21393;-71
2021/12/31 00:53:00;;;;;;;0.40;0.40;;;;;;;13.31;73.41;100944.72;671696;29;44410;-71
2021/12/31 00:53:21;;;;;;;0.35;0.35;;;;;;;13.32;73.33;100948.25;673273;29;22385;-72
2021/12/31 00:53:44;;;;;;;0.43;0.43;;;;;;;13.37;72.88;100958.56;675323;29;22370;-71
2021/12/31 00:54:05;;;;;;;0.50;0.50;;;;;;;13.39;72.69;100951.09;672764;29;92450;-71
2021/12/31 00:54:26;;;;;;;0.40;0.40;;;;;;;13.38;72.68;100947.53;680042;28;44380;-71
2021/12/31 00:54:47;;;;;;;0.30;0.30;;;;;;;13.36;72.78;100946.88;680501;28;22381;-71
2021/12/31 00:55:10;;;;;;;0.40;0.40;;;;;;;13.34;73.21;100949.78;683324;28;20701;-71
2021/12/31 00:55:32;;;;;;;0.40;0.40;;;;;;;13.37;72.89;100948.56;682603;28;46385;-71
2021/12/31 00:55:53;;;;;;;0.40;0.40;;;;;;;13.39;72.82;100957.34;682262;28;44414;-71
2021/12/31 00:56:15;;;;;;;0.30;0.30;;;;;;;13.44;72.36;100946.78;683531;28;22426;-71
2021/12/31 00:56:36;;;;;;;0.40;0.40;;;;;;;13.45;72.36;100945.75;682604;28;45298;-71
2021/12/31 00:57:02;;;;;;;0.40;0.40;;;;;;;13.43;72.69;100942.41;683726;28;1978;-71
2021/12/31 00:57:24;;;;;;;0.32;0.32;;;;;;;13.41;72.85;100944.44;679122;28;137644;-71
2021/12/31 00:57:45;;;;;;;0.40;0.40;;;;;;;13.39;73.01;100951.09;680906;29;21314;-71
2021/12/31 00:58:07;;;;;;;0.50;0.50;;;;;;;13.39;72.94;100940.25;684017;28;1049;-71
2021/12/31 00:58:28;;;;;;;0.40;0.40;;;;;;;13.38;73.29;100942.09;682996;28;29659;-71
2021/12/31 00:58:49;;;;;;;0.40;0.40;;;;;;;13.40;72.84;100950.06;680036;29;22398;-71
2021/12/31 00:59:10;;;;;;;0.40;0.40;;;;;;;13.40;72.61;100956.34;679002;29;42761;-71
2021/12/31 00:59:32;;;;;;;0.50;0.50;;;;;;;13.41;72.93;100954.47;677768;29;22423;-71
2021/12/31 00:59:54;;;;;;;0.40;0.40;;;;;;;13.43;72.43;100950.53;674017;29;46335;-71
2021/12/31 01:00:16;;;;;;;0.40;0.40;;;;;;;13.40;73.01;100942.78;674384;29;46382;-71
2021/12/31 01:00:38;;;;;;;0.30;0.30;;;;;;;13.39;72.75;100951.94;676123;29;1905;-71
2021/12/31 01:01:02;;;;;;;0.50;0.50;;;;;;;13.42;72.79;100946.13;676919;29;37019;-71
2021/12/31 01:01:25;;;;;;;0.40;0.40;;;;;;;13.45;72.42;100958.47;679064;28;21493;-72
2021/12/31 01:01:46;;;;;;;0.30;0.30;;;;;;;13.43;72.67;100952.38;679910;28;69165;-71
2021/12/31 01:02:11;;;;;;;0.40;0.40;;;;;;;13.43;72.44;100955.09;683310;28;21530;-71
2021/12/31 01:02:33;;;;;;;0.43;0.43;;;;;;;13.44;72.29;100944.06;681461;28;76480;-71
2021/12/31 01:02:54;;;;;;;0.40;0.40;;;;;;;13.44;72.44;100957.63;682212;28;45299;-71
2021/12/31 01:03:17;;;;;;;0.30;0.30;;;;;;;13.47;72.37;100954.53;682976;28;23298;-71
2021/12/31 01:03:38;;;;;;;0.50;0.50;;;;;;;13.48;72.20;100948.09;681652;28;67455;-71
2021/12/31 01:04:00;;;;;;;0.50;0.50;;;;;;;13.44;72.41;100949.47;682327;28;22337;-71
2021/12/31 01:04:22;;;;;;;0.40;0.40;;;;;;;13.41;72.86;100952.56;683693;28;1481;-71
2021/12/31 01:04:43;;;;;;;0.30;0.30;;;;;;;13.43;72.66;100957.81;683122;28;21558;-71
2021/12/31 01:05:06;;;;;;;0.40;0.40;;;;;;;13.43;72.85;100958.69;682299;28;44407;-71
2021/12/31 01:05:28;;;;;;;0.50;0.50;;;;;;;13.41;73.18;100947.16;681365;28;69476;-72
2021/12/31 01:05:49;;;;;;;0.40;0.40;;;;;;;13.44;72.59;100959.50;682042;28;46266;-71
2021/12/31 01:06:11;;;;;;;0.30;0.30;;;;;;;13.42;73.04;100953.44;683276;28;21555;-71
2021/12/31 01:06:32;;;;;;;0.40;0.40;;;;;;;13.40;72.93;100961.75;682498;28;44474;-71
2021/12/31 01:06:54;;;;;;;0.40;0.40;;;;;;;13.38;73.37;100946.69;682907;28;23490;-72
2021/12/31 01:07:15;;;;;;;0.30;0.30;;;;;;;13.36;73.55;100960.44;682066;28;46297;-71
2021/12/31 01:07:37;;;;;;;0.43;0.43;;;;;;;13.37;73.16;100962.16;682994;28;22401;-71
2021/12/31 01:07:59;;;;;;;0.50;0.50;;;;;;;13.40;72.85;100963.63;680554;29;44446;-71
2021/12/31 01:08:21;;;;;;;0.40;0.40;;;;;;;13.43;72.75;100969.53;681864;28;44412;-71
2021/12/31 01:08:43;;;;;;;0.30;0.30;;;;;;;13.45;72.74;100966.63;683028;28;22390;-71
2021/12/31 01:09:04;;;;;;;0.43;0.43;;;;;;;13.44;72.63;100954.91;681177;28;46255;-71
2021/12/31 01:09:28;;;;;;;0.40;0.40;;;;;;;13.47;72.35;100972.69;683533;28;13661;-71
2021/12/31 01:09:50;;;;;;;0.30;0.30;;;;;;;13.48;72.53;100966.25;682746;28;18630;-71
2021/12/31 01:10:14;;;;;;;0.30;0.30;;;;;;;13.44;72.84;100965.75;682004;28;69464;-71
2021/12/31 01:10:36;;;;;;;0.50;0.50;;;;;;;13.48;72.48;100961.66;679236;28;115200;-71
2021/12/31 01:10:57;;;;;;;0.40;0.40;;;;;;;13.45;72.61;100959.31;683523;28;22494;-71
2021/12/31 01:11:19;;;;;;;0.30;0.30;;;;;;;13.46;72.59;100969.16;682211;28;46393;-71
2021/12/31 01:11:42;;;;;;;0.38;0.38;;;;;;;13.45;72.76;100966.63;681895;28;22391;-71
2021/12/31 01:12:06;;;;;;;0.50;0.50;;;;;;;13.46;72.63;100960.13;678330;28;69380;-71
2021/12/31 01:12:29;;;;;;;0.40;0.40;;;;;;;13.49;72.46;100968.75;678711;28;57751;-71
2021/12/31 01:12:51;;;;;;;0.40;0.40;;;;;;;13.49;72.38;100957.06;678022;28;46218;-71
2021/12/31 01:13:22;;;;;;;0.40;0.40;;;;;;;13.47;72.62;100965.38;678996;29;46425;-71
2021/12/31 01:13:53;;;;;;;0.40;0.40;;;;;;;13.44;72.98;100964.94;678186;28;137966;-71
2021/12/31 01:14:25;;;;;;;0.38;0.38;;;;;;;13.43;73.14;100958.69;677830;28;157332;-71
2021/12/31 01:14:55;;;;;;;0.43;0.43;;;;;;;13.42;73.00;100967.84;678909;28;137706;-72
2021/12/31 01:15:22;;;;;;;0.40;0.40;;;;;;;13.42;72.66;100970.53;679476;28;138081;-71
2021/12/31 01:15:46;;;;;;;0.30;0.30;;;;;;;13.46;72.82;100973.72;679207;28;136496;-71
2021/12/31 01:16:08;;;;;;;0.43;0.43;;;;;;;13.50;72.37;100961.47;680680;28;92185;-71
2021/12/31 01:16:37;;;;;;;0.50;0.50;;;;;;;13.51;72.25;100969.41;682815;28;46360;-71
2021/12/31 01:17:03;;;;;;;0.32;0.32;;;;;;;13.51;72.32;100958.56;678872;28;137517;-71
2021/12/31 01:17:41;;;;;;;0.40;0.40;;;;;;;13.51;72.50;100963.13;680133;28;115151;-72
2021/12/31 01:18:26;;;;;;;0.50;0.50;;;;;;;13.46;73.07;100968.28;678858;28;138207;-71
2021/12/31 01:19:46;;;;;;;0.40;0.40;;;;;;;13.39;73.56;100976.34;677776;28;155757;-71
2021/12/31 01:20:08;;;;;;;0.30;0.30;;;;;;;13.42;73.43;100967.00;678899;28;138096;-71
2021/12/31 01:20:30;;;;;;;0.40;0.40;;;;;;;13.43;73.13;100968.66;682051;28;69254;-71
2021/12/31 01:20:52;;;;;;;0.43;0.43;;;;;;;13.42;73.24;100962.41;682622;28;21403;-71
2021/12/31 01:21:13;;;;;;;0.35;0.35;;;;;;;13.45;72.75;100955.78;681690;28;46819;-71
2021/12/31 01:21:34;;;;;;;0.30;0.30;;;;;;;13.44;72.98;100962.22;681024;28;23917;-71
2021/12/31 01:21:55;;;;;;;0.50;0.50;;;;;;;13.41;73.68;100962.59;679061;28;47954;-71
2021/12/31 01:22:18;;;;;;;0.50;0.50;;;;;;;13.42;73.38;100967.00;680719;28;21313;-71
2021/12/31 01:22:40;;;;;;;0.40;0.40;;;;;;;13.41;73.47;100968.84;680392;28;44410;-71
2021/12/31 01:23:01;;;;;;;0.30;0.30;;;;;;;13.42;73.24;100969.72;682505;28;46447;-71
2021/12/31 01:23:22;;;;;;;0.45;0.45;;;;;;;13.44;73.06;100971.19;682473;28;22300;-71
2021/12/31 01:23:45;;;;;;;0.40;0.40;;;;;;;13.46;72.97;100969.16;683269;28;21423;-71
2021/12/31 01:24:07;;;;;;;0.40;0.40;;;;;;;13.47;72.58;100970.81;680865;28;69232;-71
2021/12/31 01:24:30;;;;;;;0.30;0.30;;;;;;;13.50;72.61;100961.47;682852;28;45068;-71
2021/12/31 01:24:51;;;;;;;0.40;0.40;;;;;;;13.49;72.62;100962.47;680874;28;92308;-71
2021/12/31 01:25:12;;;;;;;0.40;0.40;;;;;;;13.46;73.04;100965.56;683121;28;22478;-71
2021/12/31 01:25:34;;;;;;;0.30;0.30;;;;;;;13.42;73.33;100967.00;682776;28;44155;-72
2021/12/31 01:25:55;;;;;;;0.30;0.30;;;;;;;13.42;73.50;100973.25;682103;28;46725;-72
2021/12/31 01:26:17;;;;;;;0.40;0.40;;;;;;;13.41;73.60;100976.16;683437;28;21122;-71
2021/12/31 01:26:38;;;;;;;0.40;0.40;;;;;;;13.40;73.79;100972.63;683619;28;22404;-71
2021/12/31 01:27:00;;;;;;;0.38;0.38;;;;;;;13.41;73.32;100968.84;682731;28;22433;-71
2021/12/31 01:27:21;;;;;;;0.30;0.30;;;;;;;13.43;73.34;100974.09;682646;28;42859;-71
2021/12/31 01:27:43;;;;;;;0.40;0.40;;;;;;;13.44;72.84;100973.06;682503;28;21532;-71
2021/12/31 01:28:05;;;;;;;0.40;0.40;;;;;;;13.43;73.36;100974.94;682130;28;46285;-71
2021/12/31 01:28:26;;;;;;;0.30;0.30;;;;;;;13.43;73.22;100971.38;682115;28;45257;-71
2021/12/31 01:28:47;;;;;;;0.32;0.32;;;;;;;13.46;72.82;100980.00;683116;28;22418;-71
2021/12/31 01:29:08;;;;;;;0.40;0.40;;;;;;;13.48;72.99;100968.97;682371;28;23461;-71
2021/12/31 01:29:30;;;;;;;0.40;0.40;;;;;;;13.47;72.92;100969.97;684017;28;17498;-71
2021/12/31 01:29:52;;;;;;;0.30;0.30;;;;;;;13.48;73.23;100977.09;683031;28;21649;-71
2021/12/31 01:30:14;;;;;;;0.33;0.33;;;;;;;13.51;72.76;100971.25;681356;28;69516;-71
2021/12/31 01:30:35;;;;;;;0.50;0.50;;;;;;;13.47;73.15;100978.94;682914;28;44413;-71
2021/12/31 01:30:57;;;;;;;0.40;0.40;;;;;;;13.48;73.03;100971.66;682889;28;23491;-71
2021/12/31 01:31:18;;;;;;;0.30;0.30;;;;;;;13.47;72.83;100976.22;682557;28;46411;-71
2021/12/31 01:31:39;;;;;;;0.32;0.32;;;;;;;13.47;73.07;100983.53;683415;28;21396;-71
2021/12/31 01:32:00;;;;;;;0.50;0.50;;;;;;;13.54;73.02;100975.47;680063;29;22422;-71
2021/12/31 01:32:21;;;;;;;0.40;0.40;;;;;;;13.55;72.84;100971.75;677074;29;21271;-71
2021/12/31 01:32:47;;;;;;;0.35;0.35;;;;;;;13.54;72.92;100976.31;678088;29;22404;-71
2021/12/31 01:33:08;;;;;;;0.40;0.40;;;;;;;13.54;72.79;100970.88;673353;29;138035;-71
2021/12/31 01:33:30;;;;;;;0.40;0.40;;;;;;;13.58;72.66;100968.66;678335;29;23249;-71
2021/12/31 01:33:51;;;;;;;0.40;0.40;;;;;;;13.56;72.75;100981.53;676855;29;22500;-71
2021/12/31 01:34:13;;;;;;;0.30;0.30;;;;;;;13.53;73.07;100966.50;679855;29;22283;-70
2021/12/31 01:34:34;;;;;;;0.40;0.40;;;;;;;13.51;73.08;100965.84;680199;28;44410;-71
2021/12/31 01:34:55;;;;;;;0.50;0.50;;;;;;;13.48;73.18;100974.38;679329;29;46242;-71
2021/12/31 01:35:17;;;;;;;0.40;0.40;;;;;;;13.46;73.37;100973.72;677879;29;20919;-71
2021/12/31 01:35:39;;;;;;;0.30;0.30;;;;;;;13.45;73.51;100974.75;678399;29;23623;-71
2021/12/31 01:36:09;;;;;;;0.40;0.40;;;;;;;13.44;73.77;100973.91;679035;29;58828;-70
2021/12/31 01:36:30;;;;;;;0.40;0.40;;;;;;;13.45;73.18;100978.31;679855;28;46424;-71
2021/12/31 01:36:51;;;;;;;0.35;0.35;;;;;;;13.47;72.98;100978.13;680252;29;23438;-71
2021/12/31 01:37:15;;;;;;;0.30;0.30;;;;;;;13.44;73.29;100982.03;681739;28;22407;-70
2021/12/31 01:37:36;;;;;;;0.50;0.50;;;;;;;13.41;73.79;100971.56;681977;28;69446;-69
2021/12/31 01:37:57;;;;;;;0.40;0.40;;;;;;;13.46;73.45;100990.00;682817;28;21533;-69
2021/12/31 01:38:18;;;;;;;0.30;0.30;;;;;;;13.51;72.87;100979.41;683698;28;22543;-69
2021/12/31 01:38:40;;;;;;;0.30;0.30;;;;;;;13.51;72.95;100971.25;680719;28;22402;-69
2021/12/31 01:39:03;;;;;;;0.40;0.40;;;;;;;13.48;73.22;100968.97;678734;28;45090;-69
2021/12/31 01:39:24;;;;;;;0.40;0.40;;;;;;;13.48;73.02;100966.25;679388;28;67526;-69
2021/12/31 01:39:45;;;;;;;0.30;0.30;;;;;;;13.48;72.92;100977.94;679688;29;22401;-69
2021/12/31 01:40:07;;;;;;;0.40;0.40;;;;;;;13.48;73.05;100964.34;680096;28;23466;-69
2021/12/31 01:40:29;;;;;;;0.50;0.50;;;;;;;13.48;73.14;100974.38;680495;28;45427;-69
2021/12/31 01:40:52;;;;;;;0.40;0.40;;;;;;;13.49;72.76;100974.19;682004;28;44348;-69
2021/12/31 01:41:13;;;;;;;0.30;0.30;;;;;;;13.47;73.18;100967.25;681193;28;69470;-69
2021/12/31 01:41:34;;;;;;;0.40;0.40;;;;;;;13.46;73.45;100965.56;683992;28;21549;-69
2021/12/31 01:41:58;;;;;;;0.50;0.50;;;;;;;13.44;73.77;100971.19;682741;28;22378;-70
2021/12/31 01:42:26;;;;;;;0.40;0.40;;;;;;;13.42;73.85;100973.25;681044;28;92497;-69
2021/12/31 01:42:48;;;;;;;0.30;0.30;;;;;;;13.45;73.16;100975.59;678582;28;160701;-69
2021/12/31 01:43:11;;;;;;;0.40;0.40;;;;;;;13.45;73.48;100969.34;682789;28;45167;-69
2021/12/31 01:43:32;;;;;;;0.40;0.40;;;;;;;13.49;73.22;100979.63;681966;28;67510;-69
2021/12/31 01:43:53;;;;;;;0.30;0.30;;;;;;;13.46;73.38;100968.28;679399;29;21388;-69
2021/12/31 01:44:14;;;;;;;0.40;0.40;;;;;;;13.46;73.26;100971.84;680326;29;23502;-70
2021/12/31 01:44:40;;;;;;;0.40;0.40;;;;;;;13.45;73.05;100961.19;680636;28;22381;-70
2021/12/31 01:45:04;;;;;;;0.40;0.40;;;;;;;13.47;73.23;100976.22;677212;29;116507;-70
2021/12/31 01:45:30;;;;;;;0.50;0.50;;;;;;;13.46;73.31;100979.13;677705;28;113605;-70
2021/12/31 01:45:55;;;;;;;0.40;0.40;;;;;;;13.48;73.13;100977.94;678255;28;137901;-70
2021/12/31 01:46:16;;;;;;;0.30;0.30;;;;;;;13.45;73.51;100978.31;679438;28;136849;-69
2021/12/31 01:46:52;;;;;;;0.40;0.40;;;;;;;13.50;73.00;100977.72;683344;28;23616;-69
2021/12/31 01:47:16;;;;;;;0.40;0.40;;;;;;;13.51;72.41;100977.53;679044;28;135990;-69
2021/12/31 01:47:55;;;;;;;0.30;0.30;;;;;;;13.52;72.76;100973.78;681336;28;67575;-69
2021/12/31 01:48:23;;;;;;;0.40;0.40;;;;;;;13.55;72.58;100971.75;678973;28;135996;-69
2021/12/31 01:49:01;;;;;;;0.40;0.40;;;;;;;13.53;72.93;100974.66;679078;28;136021;-69
2021/12/31 01:49:23;;;;;;;0.40;0.40;;;;;;;13.49;73.41;100978.75;677691;28;157517;-69